createdAt,value
2022-08-17T00:00:43.353Z,100917.00
2022-08-17T00:03:11.461Z,100919.00
2022-08-17T00:05:46.074Z,100923.00
2022-08-17T00:08:16.004Z,100925.00
2022-08-17T00:10:46.641Z,100926.00
2022-08-17T00:13:20.229Z,100929.00
2022-08-17T00:15:49.118Z,100918.00
2022-08-17T00:19:01.610Z,100931.00
2022-08-17T00:21:10.563Z,100931.00
2022-08-17T00:23:46.246Z,100907.00
2022-08-17T00:26:34.480Z,100911.00
2022-08-17T00:29:09.919Z,100923.00
2022-08-17T00:31:48.312Z,100918.00
2022-08-17T00:34:17.111Z,100910.00
2022-08-17T00:36:45.486Z,100904.00
2022-08-17T00:39:14.703Z,100906.00
2022-08-17T00:41:43.388Z,100897.00
2022-08-17T00:44:13.169Z,100891.00
2022-08-17T00:46:43.947Z,100912.00
2022-08-17T00:49:15.739Z,100922.00
2022-08-17T00:51:48.715Z,100913.00
2022-08-17T00:54:22.880Z,100919.00
2022-08-17T00:56:58.354Z,100914.00
2022-08-17T00:59:33.550Z,100917.00
2022-08-17T01:02:02.862Z,100910.00
2022-08-17T01:04:32.978Z,100897.00
2022-08-17T01:07:02.943Z,100913.00
2022-08-17T01:09:32.464Z,100917.00
2022-08-17T01:12:01.545Z,100910.00
2022-08-17T01:14:31.302Z,100915.00
2022-08-17T01:17:00.216Z,100915.00
2022-08-17T01:19:34.275Z,100916.00
2022-08-17T01:22:18.569Z,100904.00
2022-08-17T01:24:53.524Z,100881.00
2022-08-17T01:27:22.432Z,100910.00
2022-08-17T01:29:58.595Z,100902.00
2022-08-17T01:32:30.344Z,100911.00
2022-08-17T01:35:01.627Z,100894.00
2022-08-17T01:37:35.325Z,100899.00
2022-08-17T01:40:08.659Z,100893.00
2022-08-17T01:42:44.335Z,100912.00
2022-08-17T01:45:18.027Z,100908.00
2022-08-17T01:47:46.802Z,100912.00
2022-08-17T01:50:22.355Z,100913.00
2022-08-17T01:52:57.506Z,100902.00
2022-08-17T01:55:32.351Z,100895.00
2022-08-17T01:58:02.060Z,100901.00
2022-08-17T02:01:00.279Z,100894.00
2022-08-17T02:03:19.077Z,100877.00
2022-08-17T02:05:48.475Z,100905.00
2022-08-17T02:08:20.404Z,100918.00
2022-08-17T02:10:50.602Z,100908.00
2022-08-17T02:13:20.550Z,100898.00
2022-08-17T02:15:48.904Z,100901.00
2022-08-17T02:18:17.573Z,100912.00
2022-08-17T02:20:45.949Z,100904.00
2022-08-17T02:23:14.845Z,100901.00
2022-08-17T02:25:48.731Z,100898.00
2022-08-17T02:28:17.648Z,100897.00
2022-08-17T02:31:01.866Z,100895.00
2022-08-17T02:33:42.972Z,100882.00
2022-08-17T02:36:13.877Z,100894.00
2022-08-17T02:38:43.575Z,100872.00
2022-08-17T02:41:13.708Z,100868.00
2022-08-17T02:43:42.416Z,100863.00
2022-08-17T02:46:12.695Z,100874.00
2022-08-17T02:48:41.097Z,100878.00
2022-08-17T02:51:09.472Z,100867.00
2022-08-17T02:53:37.853Z,100843.00
2022-08-17T02:56:06.545Z,100885.00
2022-08-17T02:58:36.586Z,100857.00
2022-08-17T03:01:07.784Z,100885.00
2022-08-17T03:03:37.800Z,100870.00
2022-08-17T03:06:07.686Z,100858.00
2022-08-17T03:08:37.439Z,100866.00
2022-08-17T03:11:06.389Z,100878.00
2022-08-17T03:13:35.990Z,100870.00
2022-08-17T03:16:04.493Z,100861.00
2022-08-17T03:18:32.786Z,100828.00
2022-08-17T03:21:04.380Z,100868.00
2022-08-17T03:23:33.762Z,100869.00
2022-08-17T03:26:02.208Z,100869.00
2022-08-17T03:28:30.962Z,100874.00
2022-08-17T03:31:00.558Z,100858.00
2022-08-17T03:33:28.875Z,100874.00
2022-08-17T03:35:57.324Z,100871.00
2022-08-17T03:38:26.287Z,100877.00
2022-08-17T03:40:59.416Z,100871.00
2022-08-17T03:43:30.930Z,100873.00
2022-08-17T03:46:27.591Z,100859.00
2022-08-17T03:49:15.418Z,100878.00
2022-08-17T03:52:00.206Z,100872.00
2022-08-17T03:54:46.054Z,100884.00
2022-08-17T03:57:14.690Z,100885.00
2022-08-17T03:59:43.530Z,100863.00
2022-08-17T04:02:19.624Z,100852.00
2022-08-17T04:04:50.750Z,100832.00
2022-08-17T04:07:20.024Z,100809.00
2022-08-17T04:09:48.369Z,100843.00
2022-08-17T04:12:18.609Z,100888.00
2022-08-17T04:14:52.625Z,100881.00
2022-08-17T04:17:26.897Z,100861.00
2022-08-17T04:19:56.577Z,100872.00
2022-08-17T04:22:32.421Z,100865.00
2022-08-17T04:25:09.859Z,100875.00
2022-08-17T04:27:38.749Z,100867.00
2022-08-17T04:30:09.153Z,100873.00
2022-08-17T04:33:10.942Z,100881.00
2022-08-17T04:35:43.079Z,100891.00
2022-08-17T04:38:14.903Z,100888.00
2022-08-17T04:41:04.096Z,100887.00
2022-08-17T04:43:35.339Z,100891.00
2022-08-17T04:46:08.149Z,100894.00
2022-08-17T04:48:42.672Z,100886.00
2022-08-17T04:51:14.351Z,100894.00
2022-08-17T04:53:45.929Z,100892.00
2022-08-17T04:56:23.797Z,100893.00
2022-08-17T04:58:55.782Z,100893.00
2022-08-17T05:01:26.410Z,100902.00
2022-08-17T05:03:59.252Z,100900.00
2022-08-17T05:06:28.826Z,100892.00
2022-08-17T05:08:58.750Z,100892.00
2022-08-17T05:11:29.398Z,100890.00
2022-08-17T05:13:59.757Z,100887.00
2022-08-17T05:16:30.410Z,100884.00
2022-08-17T05:19:00.490Z,100885.00
2022-08-17T05:21:29.620Z,100895.00
2022-08-17T05:23:59.534Z,100888.00
2022-08-17T05:26:29.461Z,100888.00
2022-08-17T05:29:03.003Z,100895.00
2022-08-17T05:31:32.625Z,100899.00
2022-08-17T05:34:02.333Z,100891.00
2022-08-17T05:36:43.579Z,100888.00
2022-08-17T05:39:16.369Z,100892.00
2022-08-17T05:41:47.886Z,100888.00
2022-08-17T05:44:16.794Z,100875.00
2022-08-17T05:46:50.861Z,100883.00
2022-08-17T05:49:27.519Z,100887.00
2022-08-17T05:52:22.498Z,100891.00
2022-08-17T05:55:10.138Z,100878.00
2022-08-17T05:57:47.607Z,100894.00
2022-08-17T06:00:30.070Z,100890.00
2022-08-17T06:03:20.352Z,100897.00
2022-08-17T06:06:05.627Z,100890.00
2022-08-17T06:08:54.028Z,100892.00
2022-08-17T06:11:32.888Z,100893.00
2022-08-17T06:14:35.262Z,100892.00
2022-08-17T06:17:07.585Z,100897.00
2022-08-17T06:19:41.481Z,100905.00
2022-08-17T06:22:15.758Z,100907.00
2022-08-17T06:24:51.592Z,100899.00
2022-08-17T06:27:26.645Z,100917.00
2022-08-17T06:29:59.689Z,100914.00
2022-08-17T06:32:28.495Z,100918.00
2022-08-17T06:34:57.465Z,100922.00
2022-08-17T06:38:00.564Z,100912.00
2022-08-17T06:41:02.798Z,100908.00
2022-08-17T06:43:58.227Z,100900.00
2022-08-17T06:46:36.808Z,100904.00
2022-08-17T06:49:17.744Z,100913.00
2022-08-17T06:51:53.843Z,100927.00
2022-08-17T06:54:36.191Z,100933.00
2022-08-17T06:57:20.261Z,100937.00
2022-08-17T06:59:56.421Z,100942.00
2022-08-17T07:02:51.094Z,100938.00
2022-08-17T07:05:24.947Z,100928.00
2022-08-17T07:08:04.445Z,100919.00
2022-08-17T07:10:44.988Z,100924.00
2022-08-17T07:13:25.668Z,100923.00
2022-08-17T07:16:03.329Z,100922.00
2022-08-17T07:18:33.166Z,100917.00
2022-08-17T07:21:14.163Z,100913.00
2022-08-17T07:24:11.439Z,100913.00
2022-08-17T07:27:14.807Z,100922.00
2022-08-17T07:29:50.518Z,100921.00
2022-08-17T07:32:26.810Z,100930.00
2022-08-17T07:35:11.872Z,100933.00
2022-08-17T07:37:43.277Z,100941.00
2022-08-17T07:40:26.945Z,100929.00
2022-08-17T07:43:21.912Z,100936.00
2022-08-17T07:46:34.777Z,100938.00
2022-08-17T07:49:27.383Z,100938.00
2022-08-17T07:52:23.936Z,100947.00
2022-08-17T07:54:57.261Z,100943.00
2022-08-17T07:57:36.495Z,100928.00
2022-08-17T08:00:31.420Z,100949.00
2022-08-17T08:03:17.491Z,100955.00
2022-08-17T08:05:57.639Z,100954.00
2022-08-17T08:08:34.977Z,100961.00
2022-08-17T08:11:09.067Z,100966.00
2022-08-17T08:13:42.801Z,100966.00
2022-08-17T08:16:25.867Z,100958.00
2022-08-17T08:18:58.417Z,100958.00
2022-08-17T08:21:44.169Z,100953.00
2022-08-17T08:24:37.083Z,100960.00
2022-08-17T08:27:27.221Z,100967.00
2022-08-17T08:30:06.489Z,100973.00
2022-08-17T08:33:08.473Z,100972.00
2022-08-17T08:35:52.270Z,100982.00
2022-08-17T08:38:34.519Z,100987.00
2022-08-17T08:41:24.092Z,100980.00
2022-08-17T08:44:04.764Z,100968.00
2022-08-17T08:46:46.162Z,100973.00
2022-08-17T08:50:04.469Z,100983.00
2022-08-17T08:53:11.632Z,100984.00
2022-08-17T08:55:52.477Z,100974.00
2022-08-17T08:58:41.969Z,100968.00
2022-08-17T09:01:20.259Z,100966.00
2022-08-17T09:04:23.262Z,100968.00
2022-08-17T09:07:10.123Z,100963.00
2022-08-17T09:09:54.179Z,100965.00
2022-08-17T09:12:37.822Z,100970.00
2022-08-17T09:15:13.280Z,100963.00
2022-08-17T09:18:03.545Z,100962.00
2022-08-17T09:20:50.150Z,100964.00
2022-08-17T09:23:33.486Z,100963.00
2022-08-17T09:26:10.675Z,100959.00
2022-08-17T09:28:42.902Z,100954.00
2022-08-17T09:31:16.319Z,100957.00
2022-08-17T09:33:49.639Z,100970.00
2022-08-17T09:36:26.319Z,100960.00
2022-08-17T09:39:02.857Z,100964.00
2022-08-17T09:41:48.939Z,100962.00
2022-08-17T09:44:26.022Z,100979.00
2022-08-17T09:47:00.414Z,100961.00
2022-08-17T09:49:35.145Z,100948.00
2022-08-17T09:52:11.501Z,100958.00
2022-08-17T09:54:42.423Z,100949.00
2022-08-17T09:57:30.813Z,100956.00
2022-08-17T10:00:18.947Z,100961.00
2022-08-17T10:03:21.033Z,100961.00
2022-08-17T10:05:58.028Z,100953.00
2022-08-17T10:08:38.085Z,100959.00
2022-08-17T10:11:50.371Z,100955.00
2022-08-17T10:14:37.681Z,100953.00
2022-08-17T10:17:22.012Z,100954.00
2022-08-17T10:20:00.334Z,100942.00
2022-08-17T10:22:55.031Z,100946.00
2022-08-17T10:25:54.635Z,100941.00
2022-08-17T10:28:31.313Z,100942.00
2022-08-17T10:31:33.261Z,100951.00
2022-08-17T10:34:10.203Z,100947.00
2022-08-17T10:36:48.253Z,100934.00
2022-08-17T10:39:31.646Z,100938.00
2022-08-17T10:42:12.162Z,100932.00
2022-08-17T10:44:50.190Z,100935.00
2022-08-17T10:47:20.295Z,100941.00
2022-08-17T10:49:53.762Z,100936.00
2022-08-17T10:52:48.676Z,100933.00
2022-08-17T10:55:20.346Z,100938.00
2022-08-17T10:57:51.162Z,100935.00
2022-08-17T11:01:03.939Z,100936.00
2022-08-17T11:03:33.186Z,100934.00
2022-08-17T11:06:15.506Z,100931.00
2022-08-17T11:09:27.706Z,100942.00
2022-08-17T11:12:13.161Z,100934.00
2022-08-17T11:15:10.399Z,100936.00
2022-08-17T11:18:11.119Z,100929.00
2022-08-17T11:21:14.094Z,100929.00
2022-08-17T11:24:16.581Z,100931.00
2022-08-17T11:27:02.308Z,100932.00
2022-08-17T11:29:36.474Z,100923.00
2022-08-17T11:32:13.307Z,100935.00
2022-08-17T11:34:44.889Z,100932.00
2022-08-17T11:37:40.714Z,100933.00
2022-08-17T11:40:38.471Z,100941.00
2022-08-17T11:43:48.383Z,100944.00
2022-08-17T11:46:51.827Z,100921.00
2022-08-17T11:49:47.615Z,100929.00
2022-08-17T11:52:39.862Z,100939.00
2022-08-17T11:55:34.477Z,100939.00
2022-08-17T11:58:05.547Z,100943.00
2022-08-17T12:00:59.537Z,100933.00
2022-08-17T12:03:54.310Z,100919.00
2022-08-17T12:06:42.811Z,100948.00
2022-08-17T12:09:19.713Z,100937.00
2022-08-17T12:12:13.164Z,100946.00
2022-08-17T12:17:41.183Z,100939.00
2022-08-17T12:20:17.636Z,100946.00
2022-08-17T12:22:56.386Z,100941.00
2022-08-17T12:25:33.954Z,100941.00
2022-08-17T12:28:06.184Z,100947.00
2022-08-17T12:30:37.235Z,100947.00
2022-08-17T12:33:13.370Z,100952.00
2022-08-17T12:35:59.993Z,100945.00
2022-08-17T12:38:33.209Z,100948.00
2022-08-17T12:41:26.390Z,100943.00
2022-08-17T12:44:01.722Z,100941.00
2022-08-17T12:46:34.759Z,100946.00
2022-08-17T12:49:19.582Z,100939.00
2022-08-17T12:51:49.374Z,100943.00
2022-08-17T12:54:42.408Z,100937.00
2022-08-17T12:57:19.924Z,100947.00
2022-08-17T12:59:54.051Z,100924.00
2022-08-17T13:02:32.812Z,100934.00
2022-08-17T13:05:02.764Z,100931.00
2022-08-17T13:07:35.619Z,100929.00
2022-08-17T13:10:05.538Z,100929.00
2022-08-17T13:12:37.036Z,100936.00
2022-08-17T13:15:06.562Z,100926.00
2022-08-17T13:17:37.422Z,100923.00
2022-08-17T13:20:15.753Z,100935.00
2022-08-17T13:22:45.280Z,100941.00
2022-08-17T13:25:17.864Z,100941.00
2022-08-17T13:27:49.035Z,100956.00
2022-08-17T13:30:27.068Z,100960.00
2022-08-17T13:32:57.931Z,100966.00
2022-08-17T13:35:40.997Z,100975.00
2022-08-17T13:38:14.690Z,100989.00
2022-08-17T13:40:54.424Z,100985.00
2022-08-17T13:43:46.230Z,100972.00
2022-08-17T13:46:22.292Z,100969.00
2022-08-17T13:49:01.662Z,100961.00
2022-08-17T13:51:35.173Z,100959.00
2022-08-17T13:54:21.994Z,100963.00
2022-08-17T13:57:02.815Z,100973.00
2022-08-17T13:59:54.348Z,100956.00
2022-08-17T14:02:26.096Z,100957.00
2022-08-17T14:04:57.207Z,100963.00
2022-08-17T14:07:34.700Z,100939.00
2022-08-17T14:10:09.296Z,100957.00
2022-08-17T14:12:41.212Z,100964.00
2022-08-17T14:15:13.319Z,100954.00
2022-08-17T14:17:41.607Z,100957.00
2022-08-17T14:20:14.193Z,100961.00
2022-08-17T14:22:47.188Z,100955.00
2022-08-17T14:25:20.782Z,100954.00
2022-08-17T14:27:52.648Z,100962.00
2022-08-17T14:30:26.761Z,100949.00
2022-08-17T14:32:57.917Z,100958.00
2022-08-17T14:35:28.063Z,100951.00
2022-08-17T14:37:57.084Z,100940.00
2022-08-17T14:40:26.898Z,100925.00
2022-08-17T14:42:57.833Z,100914.00
2022-08-17T14:45:32.778Z,100912.00
2022-08-17T14:48:05.739Z,100908.00
2022-08-17T14:50:36.110Z,100914.00
2022-08-17T14:53:05.946Z,100915.00
2022-08-17T14:55:34.578Z,100906.00
2022-08-17T14:58:03.946Z,100914.00
2022-08-17T15:00:34.467Z,100913.00
2022-08-17T15:03:03.460Z,100917.00
2022-08-17T15:05:34.974Z,100912.00
2022-08-17T15:08:05.544Z,100901.00
2022-08-17T15:10:34.775Z,100900.00
2022-08-17T15:13:03.716Z,100911.00
2022-08-17T15:15:34.163Z,100903.00
2022-08-17T15:18:03.226Z,100915.00
2022-08-17T15:20:31.994Z,100927.00
2022-08-17T15:23:00.302Z,100934.00
2022-08-17T15:25:32.502Z,100954.00
2022-08-17T15:28:02.158Z,100966.00
2022-08-17T15:30:31.783Z,100991.00
2022-08-17T15:33:02.952Z,101021.00
2022-08-17T15:35:34.770Z,100979.00
2022-08-17T15:38:11.721Z,100951.00
2022-08-17T15:40:45.824Z,100957.00
2022-08-17T15:43:17.340Z,100958.00
2022-08-17T15:45:56.808Z,100945.00
2022-08-17T15:48:41.916Z,100952.00
2022-08-17T15:51:18.491Z,100955.00
2022-08-17T15:53:50.038Z,100938.00
2022-08-17T15:56:19.363Z,100949.00
2022-08-17T15:58:50.514Z,100928.00
2022-08-17T16:02:23.214Z,100912.00
2022-08-17T16:04:29.764Z,100908.00
2022-08-17T16:06:59.972Z,100932.00
2022-08-17T16:09:28.683Z,100936.00
2022-08-17T16:11:56.962Z,100937.00
2022-08-17T16:14:30.291Z,100903.00
2022-08-17T16:17:02.317Z,100922.00
2022-08-17T16:19:32.509Z,100915.00
2022-08-17T16:22:01.168Z,100909.00
2022-08-17T16:24:29.946Z,100888.00
2022-08-17T16:26:58.887Z,100875.00
2022-08-17T16:29:27.120Z,100881.00
2022-08-17T16:31:56.070Z,100874.00
2022-08-17T16:34:24.753Z,100877.00
2022-08-17T16:36:56.462Z,100876.00
2022-08-17T16:39:28.178Z,100869.00
2022-08-17T16:41:57.031Z,100877.00
2022-08-17T16:44:27.513Z,100868.00
2022-08-17T16:46:55.971Z,100865.00
2022-08-17T16:49:36.635Z,100877.00
2022-08-17T16:52:11.255Z,100885.00
2022-08-17T16:54:43.491Z,100882.00
2022-08-17T16:57:12.744Z,100887.00
2022-08-17T16:59:43.679Z,100894.00
2022-08-17T17:02:16.545Z,100903.00
2022-08-17T17:04:52.084Z,100893.00
2022-08-17T17:07:41.184Z,100883.00
2022-08-17T17:10:14.689Z,100884.00
2022-08-17T17:13:01.859Z,100913.00
2022-08-17T17:15:54.878Z,100906.00
2022-08-17T17:18:37.391Z,100909.00
2022-08-17T17:21:11.878Z,100920.00
2022-08-17T17:23:52.214Z,100922.00
2022-08-17T17:26:50.607Z,100924.00
2022-08-17T17:29:46.520Z,100924.00
2022-08-17T17:32:23.144Z,100930.00
2022-08-17T17:35:07.179Z,100933.00
2022-08-17T17:37:37.414Z,100929.00
2022-08-17T17:40:16.984Z,100938.00
2022-08-17T17:42:46.610Z,100929.00
2022-08-17T17:45:21.670Z,100926.00
2022-08-17T17:47:50.791Z,100946.00
2022-08-17T17:50:36.158Z,100949.00
2022-08-17T17:53:10.600Z,100951.00
2022-08-17T17:55:54.885Z,100954.00
2022-08-17T17:58:36.851Z,100945.00
2022-08-17T18:01:43.707Z,100956.00
2022-08-17T18:04:26.981Z,100952.00
2022-08-17T18:07:16.441Z,100958.00
2022-08-17T18:10:19.634Z,100966.00
2022-08-17T18:13:11.724Z,100967.00
2022-08-17T18:15:51.000Z,100966.00
2022-08-17T18:18:38.655Z,100984.00
2022-08-17T18:21:16.942Z,100983.00
2022-08-17T18:23:53.550Z,100982.00
2022-08-17T18:26:44.895Z,100983.00
2022-08-17T18:29:34.243Z,100975.00
2022-08-17T18:32:35.592Z,100986.00
2022-08-17T18:35:29.172Z,100980.00
2022-08-17T18:38:10.837Z,100978.00
2022-08-17T18:40:40.013Z,100967.00
2022-08-17T18:43:15.373Z,100971.00
2022-08-17T18:45:48.773Z,100977.00
2022-08-17T18:48:26.970Z,100969.00
2022-08-17T18:50:59.455Z,100963.00
2022-08-17T18:53:45.621Z,100953.00
2022-08-17T18:56:33.573Z,100971.00
2022-08-17T18:59:13.488Z,100984.00
2022-08-17T19:02:02.020Z,100989.00
2022-08-17T19:04:41.471Z,100982.00
2022-08-17T19:07:27.986Z,100981.00
2022-08-17T19:10:07.981Z,100984.00
2022-08-17T19:12:46.733Z,100989.00
2022-08-17T19:15:23.735Z,100985.00
2022-08-17T19:18:05.015Z,100976.00
2022-08-17T19:20:41.309Z,100979.00
2022-08-17T19:23:21.233Z,100971.00
2022-08-17T19:25:58.803Z,100973.00
2022-08-17T19:28:34.341Z,100983.00
2022-08-17T19:31:16.857Z,100985.00
2022-08-17T19:33:48.126Z,100986.00
2022-08-17T19:36:36.017Z,100991.00
2022-08-17T19:39:12.969Z,100998.00
2022-08-17T19:41:50.294Z,101008.00
2022-08-17T19:44:38.185Z,101011.00
2022-08-17T19:47:43.553Z,101019.00
2022-08-17T19:50:22.601Z,101021.00
2022-08-17T19:53:02.123Z,101024.00
2022-08-17T19:55:43.812Z,101035.00
2022-08-17T19:58:26.206Z,101033.00
2022-08-17T20:00:56.137Z,101037.00
2022-08-17T20:03:32.018Z,101033.00
2022-08-17T20:06:14.252Z,101050.00
2022-08-17T20:09:05.486Z,101046.00
2022-08-17T20:11:42.967Z,101042.00
2022-08-17T20:14:16.347Z,101041.00
2022-08-17T20:16:45.295Z,101047.00
2022-08-17T20:19:25.059Z,101045.00
2022-08-17T20:22:06.183Z,101043.00
2022-08-17T20:24:44.356Z,101054.00
2022-08-17T20:27:19.133Z,101054.00
2022-08-17T20:30:10.826Z,101045.00
2022-08-17T20:32:55.675Z,101038.00
2022-08-17T20:35:28.928Z,101047.00
2022-08-17T20:38:02.984Z,101047.00
2022-08-17T20:40:38.293Z,101035.00
2022-08-17T20:43:48.965Z,101041.00
2022-08-17T20:46:34.208Z,101042.00
2022-08-17T20:49:21.168Z,101043.00
2022-08-17T20:52:01.698Z,101049.00
2022-08-17T20:54:46.970Z,101042.00
2022-08-17T20:57:48.565Z,101045.00
2022-08-17T21:00:47.280Z,101048.00
2022-08-17T21:03:51.838Z,101043.00
2022-08-17T21:06:26.646Z,101046.00
2022-08-17T21:08:59.590Z,101052.00
2022-08-17T21:12:03.982Z,101052.00
2022-08-17T21:14:57.456Z,101054.00
2022-08-17T21:17:50.119Z,101047.00
2022-08-17T21:20:35.034Z,101048.00
2022-08-17T21:23:42.367Z,101044.00
2022-08-17T21:26:30.591Z,101034.00
2022-08-17T21:29:31.967Z,101032.00
2022-08-17T21:32:24.501Z,101035.00
2022-08-17T21:35:48.594Z,101032.00
2022-08-17T21:38:20.706Z,101026.00
2022-08-17T21:40:53.725Z,101032.00
2022-08-17T21:43:27.095Z,101025.00
2022-08-17T21:46:02.740Z,101032.00
2022-08-17T21:48:35.059Z,101048.00
2022-08-17T21:51:12.190Z,101037.00
2022-08-17T21:53:47.619Z,101036.00
2022-08-17T21:56:26.586Z,101039.00
2022-08-17T21:59:00.678Z,101042.00
2022-08-17T22:01:34.820Z,101038.00
2022-08-17T22:04:08.686Z,101040.00
2022-08-17T22:06:40.792Z,101030.00
2022-08-17T22:09:19.124Z,101022.00
2022-08-17T22:11:59.445Z,101031.00
2022-08-17T22:14:51.641Z,101032.00
2022-08-17T22:17:26.300Z,101023.00
2022-08-17T22:19:59.065Z,101027.00
2022-08-17T22:22:35.610Z,101031.00
2022-08-17T22:25:09.289Z,101027.00
2022-08-17T22:27:50.630Z,101037.00
2022-08-17T22:30:29.064Z,101044.00
2022-08-17T22:33:00.971Z,101056.00
2022-08-17T22:35:45.794Z,101044.00
2022-08-17T22:38:33.547Z,101055.00
2022-08-17T22:41:31.551Z,101057.00
2022-08-17T22:44:09.136Z,101059.00
2022-08-17T22:46:49.897Z,101063.00
2022-08-17T22:49:27.405Z,101079.00
2022-08-17T22:52:18.892Z,101086.00
2022-08-17T22:55:09.187Z,101078.00
2022-08-17T22:57:56.133Z,101085.00
2022-08-17T23:00:37.522Z,101089.00
2022-08-17T23:03:17.057Z,101080.00
2022-08-17T23:05:54.378Z,101087.00
2022-08-17T23:08:23.162Z,101083.00
2022-08-17T23:10:52.002Z,101077.00
2022-08-17T23:13:21.679Z,101070.00
2022-08-17T23:15:53.241Z,101073.00
2022-08-17T23:18:23.519Z,101049.00
2022-08-17T23:20:53.762Z,101054.00
2022-08-17T23:23:23.984Z,101044.00
2022-08-17T23:25:52.950Z,101071.00
2022-08-17T23:28:21.596Z,101068.00
2022-08-17T23:30:50.464Z,101043.00
2022-08-17T23:33:25.675Z,101060.00
2022-08-17T23:35:55.926Z,101032.00
2022-08-17T23:38:27.070Z,101054.00
2022-08-17T23:43:40.201Z,101047.00
2022-08-17T23:46:08.539Z,101039.00
2022-08-17T23:48:37.459Z,101036.00
2022-08-17T23:51:09.829Z,101056.00
2022-08-17T23:53:44.744Z,101051.00
2022-08-17T23:56:13.174Z,101041.00
2022-08-17T23:58:45.009Z,101040.00
